Lowell, Michigan
Current Conditions -  °F | °C
As of 1:53 AM on Friday 28 Nov 2014 (Local Time) from KGRR Reporting Station
Overcast Overcast  
Wind Chill: 10°   Ceiling: 3900
Heat Index: 17°   Visibility: 10mi
Dew Point: 11°   Wind: 5mph
Humidity: 77%   Direction: 220°SW
Pressure: 30.33"   Gusts: NA
Location:  42.93°N, 85.34°W
Report Text: KGRR 280653Z AUTO 22004KT 10SM OVC039 M08/M12 A3033 RMK AO2 SLP282 T10831117 $
Loading
Personal Weather Stations






























Interactive Weather Map New forecast layout! Learn more

10-Day Weather Forecast

Advertisements
Track Severe Weather on mobile